Time,TemperatureF,DewpointF,PressureIn,WindDirection,WindDirectionDegrees,WindSpeedMPH,WindSpeedGustMPH,Humidity,HourlyPrecipIn,Conditions,Clouds,dailyrainin,SoftwareType,DateUTC
2013-10-02 00:02:00,70.0,62.5,30.03,SSW,202,2.9,2.9,77,0.00,,---,0.00,VWS V14.01,2013-10-02 05:02:00,
2013-10-02 00:07:00,69.8,62.3,30.03,South,180,2.7,4.9,77,0.00,,---,0.00,VWS V14.01,2013-10-02 05:07:00,
2013-10-02 00:13:00,69.6,62.1,30.00,SSE,158,1.1,1.6,77,0.00,,---,0.00,VWS V14.01,2013-10-02 05:13:00,
2013-10-02 00:18:00,69.4,62.3,30.00,SSE,158,3.4,4.9,78,0.00,,---,0.00,VWS V14.01,2013-10-02 05:18:00,
2013-10-02 00:24:00,69.1,62.3,30.06,SSW,202,2.2,4.3,79,0.00,,---,0.00,VWS V14.01,2013-10-02 05:24:00,
2013-10-02 00:30:00,68.9,62.1,30.06,SSW,202,2.0,3.6,79,0.00,,---,0.00,VWS V14.01,2013-10-02 05:30:00,
2013-10-02 00:35:00,68.7,62.0,30.06,SSW,202,2.0,2.9,79,0.00,,---,0.00,VWS V14.01,2013-10-02 05:35:00,
2013-10-02 00:41:00,68.5,61.8,30.03,South,180,0.9,2.2,79,0.00,,---,0.00,VWS V14.01,2013-10-02 05:41:00,
2013-10-02 00:46:00,68.5,62.1,30.03,South,180,2.0,2.7,80,0.00,,---,0.00,VWS V14.01,2013-10-02 05:46:00,
2013-10-02 00:51:00,68.5,62.1,30.03,South,180,1.3,2.0,80,0.00,,---,0.00,VWS V14.01,2013-10-02 05:51:00,
2013-10-02 00:56:00,68.4,62.0,30.03,SSE,158,1.6,4.3,80,0.00,,---,0.00,VWS V14.01,2013-10-02 05:56:00,
2013-10-02 01:02:00,68.5,62.1,30.03,South,180,2.7,5.6,80,0.00,,---,0.00,VWS V14.01,2013-10-02 06:02:00,
2013-10-02 01:07:00,68.5,62.1,30.03,South,180,2.2,3.1,80,0.00,,---,0.00,VWS V14.01,2013-10-02 06:07:00,
2013-10-02 01:12:00,68.4,62.0,30.03,South,180,3.4,3.4,80,0.00,,---,0.00,VWS V14.01,2013-10-02 06:12:00,
2013-10-02 01:17:00,68.4,62.0,30.03,SSE,158,4.3,4.3,80,0.00,,---,0.00,VWS V14.01,2013-10-02 06:17:00,
2013-10-02 01:23:00,68.2,61.8,30.03,SSE,158,3.6,3.6,80,0.00,,---,0.00,VWS V14.01,2013-10-02 06:23:00,
2013-10-02 01:28:00,68.0,61.6,30.06,South,180,6.0,6.0,80,0.00,,---,0.00,VWS V14.01,2013-10-02 06:28:00,
2013-10-02 01:34:00,68.0,62.0,30.06,SSE,158,4.0,4.0,81,0.00,,---,0.00,VWS V14.01,2013-10-02 06:34:00,
2013-10-02 01:40:00,68.2,62.1,30.03,South,180,5.8,5.8,81,0.00,,---,0.00,VWS V14.01,2013-10-02 06:40:00,
2013-10-02 01:45:00,68.2,62.1,30.03,ESE,112,3.4,4.3,81,0.00,,---,0.00,VWS V14.01,2013-10-02 06:45:00,
2013-10-02 01:51:00,68.2,62.1,30.03,SSE,158,4.0,4.3,81,0.00,,---,0.00,VWS V14.01,2013-10-02 06:51:00,
2013-10-02 01:56:00,68.2,62.1,30.00,South,180,4.3,5.4,81,0.00,,---,0.00,VWS V14.01,2013-10-02 06:56:00,
2013-10-02 02:02:00,68.0,62.0,30.00,South,180,2.0,5.6,81,0.00,,---,0.00,VWS V14.01,2013-10-02 07:02:00,
2013-10-02 02:07:00,68.0,62.3,30.00,SSE,158,2.9,7.8,82,0.00,,---,0.00,VWS V14.01,2013-10-02 07:07:00,
2013-10-02 02:12:00,67.8,62.1,30.03,SE,135,2.7,3.6,82,0.00,,---,0.00,VWS V14.01,2013-10-02 07:12:00,
2013-10-02 02:18:00,67.6,62.0,30.03,ESE,112,1.1,4.3,82,0.00,,---,0.00,VWS V14.01,2013-10-02 07:18:00,
2013-10-02 02:23:00,67.6,62.6,30.03,South,180,1.6,6.5,84,0.00,,---,0.00,VWS V14.01,2013-10-02 07:23:00,
2013-10-02 02:29:00,67.5,62.1,30.00,SSW,202,4.3,4.3,83,0.00,,---,0.00,VWS V14.01,2013-10-02 07:29:00,
2013-10-02 02:34:00,67.5,62.5,30.00,SSW,202,2.5,3.4,84,0.00,,---,0.00,VWS V14.01,2013-10-02 07:34:00,
2013-10-02 02:40:00,67.3,62.6,30.00,SSW,202,1.3,2.0,85,0.00,,---,0.00,VWS V14.01,2013-10-02 07:40:00,
2013-10-02 02:45:00,67.3,63.0,30.00,SSE,158,0.9,4.3,86,0.00,,---,0.00,VWS V14.01,2013-10-02 07:45:00,
2013-10-02 02:51:00,67.3,63.3,30.00,SSW,202,3.6,3.8,87,0.00,,---,0.00,VWS V14.01,2013-10-02 07:51:00,
2013-10-02 02:57:00,67.1,63.1,30.00,South,180,3.8,4.0,87,0.00,,---,0.00,VWS V14.01,2013-10-02 07:57:00,
2013-10-02 03:02:00,67.1,63.1,30.00,South,180,3.1,4.0,87,0.00,,---,0.00,VWS V14.01,2013-10-02 08:02:00,
2013-10-02 03:08:00,66.9,63.3,30.00,South,180,5.6,5.6,88,0.00,,---,0.00,VWS V14.01,2013-10-02 08:08:00,
2013-10-02 03:13:00,66.6,62.9,30.03,SSE,158,1.3,2.7,88,0.00,,---,0.00,VWS V14.01,2013-10-02 08:13:00,
2013-10-02 03:19:00,66.6,63.2,30.03,SE,135,3.8,4.3,89,0.00,,---,0.00,VWS V14.01,2013-10-02 08:19:00,
2013-10-02 03:25:00,66.6,63.5,30.03,South,180,3.1,4.3,90,0.00,,---,0.00,VWS V14.01,2013-10-02 08:25:00,
2013-10-02 03:30:00,66.4,63.0,30.03,South,180,1.1,4.0,89,0.00,,---,0.00,VWS V14.01,2013-10-02 08:30:00,
2013-10-02 03:36:00,66.2,63.2,30.03,SSE,158,1.1,1.6,90,0.00,,---,0.00,VWS V14.01,2013-10-02 08:36:00,
2013-10-02 03:41:00,66.0,63.3,30.03,South,180,1.1,2.5,91,0.00,,---,0.00,VWS V14.01,2013-10-02 08:41:00,
2013-10-02 03:47:00,66.0,63.3,30.03,South,180,2.5,3.1,91,0.00,,---,0.00,VWS V14.01,2013-10-02 08:47:00,
2013-10-02 03:53:00,65.7,63.0,30.03,South,180,2.0,2.7,91,0.00,,---,0.00,VWS V14.01,2013-10-02 08:53:00,
2013-10-02 03:58:00,65.7,63.3,30.03,South,180,1.3,2.0,92,0.00,,---,0.00,VWS V14.01,2013-10-02 08:58:00,
2013-10-02 04:04:00,65.5,63.1,30.03,SSW,202,4.7,4.7,92,0.00,,---,0.00,VWS V14.01,2013-10-02 09:04:00,
2013-10-02 04:09:00,65.5,63.1,30.03,South,180,2.7,2.7,92,0.00,,---,0.00,VWS V14.01,2013-10-02 09:09:00,
2013-10-02 04:15:00,65.3,62.9,30.03,South,180,2.5,3.6,92,0.00,,---,0.00,VWS V14.01,2013-10-02 09:15:00,
2013-10-02 04:21:00,65.1,63.0,30.03,South,180,1.1,2.5,93,0.00,,---,0.00,VWS V14.01,2013-10-02 09:21:00,
2013-10-02 04:27:00,65.1,63.3,30.03,South,180,2.5,2.7,94,0.00,,---,0.00,VWS V14.01,2013-10-02 09:27:00,
2013-10-02 04:33:00,64.9,62.9,30.03,South,180,0.9,1.6,93,0.00,,---,0.00,VWS V14.01,2013-10-02 09:33:00,
2013-10-02 04:38:00,64.9,63.2,30.03,South,180,1.3,2.7,94,0.00,,---,0.00,VWS V14.01,2013-10-02 09:38:00,
2013-10-02 04:43:00,64.9,63.2,30.03,SSE,158,2.0,2.5,94,0.00,,---,0.00,VWS V14.01,2013-10-02 09:43:00,
2013-10-02 04:49:00,64.9,63.2,30.03,South,180,3.6,4.9,94,0.00,,---,0.00,VWS V14.01,2013-10-02 09:49:00,
2013-10-02 04:54:00,64.9,63.5,30.03,SSW,202,0.9,1.6,95,0.00,,---,0.00,VWS V14.01,2013-10-02 09:54:00,
2013-10-02 04:59:00,64.8,63.3,30.03,SSW,202,1.3,2.0,95,0.00,,---,0.00,VWS V14.01,2013-10-02 09:59:00,
2013-10-02 05:04:00,64.8,63.3,30.03,SSW,202,1.6,3.1,95,0.00,,---,0.00,VWS V14.01,2013-10-02 10:04:00,
2013-10-02 05:10:00,64.8,63.3,30.03,SSW,202,2.7,2.7,95,0.00,,---,0.00,VWS V14.01,2013-10-02 10:10:00,
2013-10-02 05:16:00,64.8,63.3,30.03,South,180,2.7,2.7,95,0.00,,---,0.00,VWS V14.01,2013-10-02 10:16:00,
2013-10-02 05:22:00,64.9,63.5,30.03,SSE,158,1.3,3.8,95,0.00,,---,0.00,VWS V14.01,2013-10-02 10:22:00,
2013-10-02 05:27:00,64.9,63.8,30.03,SSW,202,0.9,3.8,96,0.00,,---,0.00,VWS V14.01,2013-10-02 10:27:00,
2013-10-02 05:32:00,64.9,63.8,30.03,South,180,1.3,2.5,96,0.00,,---,0.00,VWS V14.01,2013-10-02 10:32:00,
2013-10-02 05:38:00,65.1,64.0,30.03,South,180,2.0,4.3,96,0.00,,---,0.00,VWS V14.01,2013-10-02 10:38:00,
2013-10-02 05:43:00,65.1,64.0,30.03,SSE,158,1.6,3.8,96,0.00,,---,0.00,VWS V14.01,2013-10-02 10:43:00,
2013-10-02 05:49:00,65.1,64.0,30.03,South,180,1.1,3.1,96,0.00,,---,0.00,VWS V14.01,2013-10-02 10:49:00,
2013-10-02 05:54:00,65.1,64.0,30.03,South,180,0.9,3.4,96,0.00,,---,0.00,VWS V14.01,2013-10-02 10:54:00,
2013-10-02 06:00:00,65.1,64.0,30.03,South,180,0.0,3.4,96,0.00,,---,0.00,VWS V14.01,2013-10-02 11:00:00,
2013-10-02 06:05:00,65.5,64.3,30.03,South,180,3.4,3.4,96,0.00,,---,0.00,VWS V14.01,2013-10-02 11:05:00,
2013-10-02 06:11:00,65.7,64.5,30.00,South,180,2.2,2.2,96,0.00,,---,0.00,VWS V14.01,2013-10-02 11:11:00,
2013-10-02 06:17:00,65.8,64.7,30.00,SSE,158,1.6,4.9,96,0.00,,---,0.00,VWS V14.01,2013-10-02 11:17:00,
2013-10-02 06:22:00,65.8,64.7,30.00,SSE,158,2.0,4.9,96,0.00,,---,0.00,VWS V14.01,2013-10-02 11:22:00,
2013-10-02 06:28:00,66.0,65.2,30.03,SSW,202,4.0,5.6,97,0.00,,---,0.00,VWS V14.01,2013-10-02 11:28:00,
2013-10-02 06:33:00,66.2,65.0,30.03,South,180,2.0,2.2,96,0.00,,---,0.00,VWS V14.01,2013-10-02 11:33:00,
2013-10-02 06:39:00,66.4,65.2,30.03,South,180,1.3,2.9,96,0.00,,---,0.00,VWS V14.01,2013-10-02 11:39:00,
2013-10-02 06:45:00,66.6,65.4,30.03,South,180,2.7,6.3,96,0.00,,---,0.00,VWS V14.01,2013-10-02 11:45:00,
2013-10-02 06:50:00,66.6,65.4,30.03,SSE,158,1.6,2.2,96,0.00,,---,0.00,VWS V14.01,2013-10-02 11:50:00,
2013-10-02 06:56:00,66.6,65.4,30.03,South,180,1.3,2.7,96,0.00,,---,0.00,VWS V14.01,2013-10-02 11:56:00,
2013-10-02 07:01:00,66.7,65.6,30.03,South,180,1.1,1.1,96,0.00,,---,0.00,VWS V14.01,2013-10-02 12:01:00,
2013-10-02 07:07:00,66.7,65.6,30.03,South,180,2.0,3.4,96,0.00,,---,0.00,VWS V14.01,2013-10-02 12:07:00,
2013-10-02 07:13:00,66.9,65.8,30.00,SE,135,3.6,3.6,96,0.00,,---,0.00,VWS V14.01,2013-10-02 12:13:00,
2013-10-02 07:18:00,66.9,65.8,30.00,South,180,4.9,5.4,96,0.00,,---,0.00,VWS V14.01,2013-10-02 12:18:00,
2013-10-02 07:24:00,67.1,65.9,30.03,SSW,202,2.5,4.0,96,0.00,,---,0.00,VWS V14.01,2013-10-02 12:24:00,
2013-10-02 07:29:00,67.3,66.4,30.03,SSW,202,4.7,4.7,97,0.00,,---,0.00,VWS V14.01,2013-10-02 12:29:00,
2013-10-02 07:35:00,67.5,66.6,30.03,SE,135,2.0,3.8,97,0.00,,---,0.00,VWS V14.01,2013-10-02 12:35:00,
2013-10-02 07:40:00,67.5,66.6,30.03,SSE,158,2.9,4.9,97,0.00,,---,0.00,VWS V14.01,2013-10-02 12:40:00,
2013-10-02 07:45:00,67.6,66.8,30.03,SSE,158,1.1,3.8,97,0.00,,---,0.00,VWS V14.01,2013-10-02 12:45:00,
2013-10-02 07:51:00,67.8,66.9,30.03,SSW,202,2.7,3.6,97,0.00,,---,0.00,VWS V14.01,2013-10-02 12:51:00,
2013-10-02 07:56:00,67.8,66.9,30.03,SSE,158,3.6,5.6,97,0.00,,---,0.00,VWS V14.01,2013-10-02 12:56:00,
2013-10-02 08:02:00,68.0,66.8,30.03,SSW,202,1.1,3.4,96,0.00,,---,0.00,VWS V14.01,2013-10-02 13:02:00,
2013-10-02 08:07:00,68.0,66.8,30.03,South,180,1.1,4.0,96,0.00,,---,0.00,VWS V14.01,2013-10-02 13:07:00,
2013-10-02 08:13:00,68.2,67.0,30.03,SE,135,6.0,6.0,96,0.00,,---,0.00,VWS V14.01,2013-10-02 13:13:00,
2013-10-02 08:18:00,68.2,67.0,30.03,SE,135,0.9,2.7,96,0.00,,---,0.00,VWS V14.01,2013-10-02 13:18:00,
2013-10-02 08:24:00,68.4,67.2,30.03,SSW,202,2.7,6.3,96,0.00,,---,0.00,VWS V14.01,2013-10-02 13:24:00,
2013-10-02 08:30:00,68.4,67.2,30.03,South,180,2.7,4.3,96,0.00,,---,0.00,VWS V14.01,2013-10-02 13:30:00,
2013-10-02 08:35:00,68.4,67.2,30.03,South,180,2.5,4.7,96,0.00,,---,0.00,VWS V14.01,2013-10-02 13:35:00,
2013-10-02 08:41:00,68.4,67.2,30.03,SSW,202,3.4,3.4,96,0.00,,---,0.00,VWS V14.01,2013-10-02 13:41:00,
2013-10-02 08:46:00,68.7,67.5,30.03,South,180,2.9,8.7,96,0.00,,---,0.00,VWS V14.01,2013-10-02 13:46:00,
2013-10-02 08:52:00,68.9,67.7,30.03,South,180,4.9,7.4,96,0.00,,---,0.00,VWS V14.01,2013-10-02 13:52:00,
2013-10-02 08:57:00,68.9,67.7,30.03,SSW,202,4.3,4.3,96,0.00,,---,0.00,VWS V14.01,2013-10-02 13:57:00,
2013-10-02 09:02:00,69.1,67.9,30.03,SSE,158,7.2,7.2,96,0.00,,---,0.00,VWS V14.01,2013-10-02 14:02:00,
2013-10-02 09:07:00,69.3,68.1,30.03,South,180,1.3,6.3,96,0.00,,---,0.00,VWS V14.01,2013-10-02 14:07:00,
2013-10-02 09:13:00,69.3,68.1,30.06,SSE,158,4.0,4.7,96,0.00,,---,0.00,VWS V14.01,2013-10-02 14:13:00,
2013-10-02 09:18:00,69.4,68.2,30.06,South,180,2.7,6.3,96,0.00,,---,0.00,VWS V14.01,2013-10-02 14:18:00,
2013-10-02 09:23:00,69.6,68.4,30.06,South,180,1.1,3.6,96,0.00,,---,0.00,VWS V14.01,2013-10-02 14:23:00,
2013-10-02 09:29:00,69.8,68.6,30.06,South,180,2.5,2.9,96,0.00,,---,0.00,VWS V14.01,2013-10-02 14:29:00,
2013-10-02 09:34:00,70.0,68.8,30.06,SW,225,2.9,4.7,96,0.00,,---,0.00,VWS V14.01,2013-10-02 14:34:00,
2013-10-02 09:40:00,70.3,69.2,30.06,South,180,3.4,3.6,96,0.00,,---,0.00,VWS V14.01,2013-10-02 14:40:00,
2013-10-02 09:45:00,70.3,69.2,30.06,SSE,158,6.0,7.2,96,0.00,,---,0.00,VWS V14.01,2013-10-02 14:45:00,
2013-10-02 09:51:00,70.3,68.8,30.06,South,180,4.3,10.3,95,0.00,,---,0.00,VWS V14.01,2013-10-02 14:51:00,
2013-10-02 09:56:00,70.3,68.8,30.06,SSW,202,1.6,4.3,95,0.00,,---,0.00,VWS V14.01,2013-10-02 14:56:00,
2013-10-02 10:02:00,70.5,69.0,30.06,South,180,2.9,6.5,95,0.00,,---,0.00,VWS V14.01,2013-10-02 15:02:00,
2013-10-02 10:08:00,70.7,69.2,30.06,South,180,6.0,8.5,95,0.00,,---,0.00,VWS V14.01,2013-10-02 15:08:00,
2013-10-02 10:13:00,70.9,69.4,30.06,SSE,158,2.7,6.5,95,0.00,,---,0.00,VWS V14.01,2013-10-02 15:13:00,
2013-10-02 10:19:00,71.1,69.6,30.06,SE,135,3.6,4.3,95,0.00,,---,0.00,VWS V14.01,2013-10-02 15:19:00,
2013-10-02 10:24:00,71.1,69.2,30.06,SE,135,3.1,6.3,94,0.00,,---,0.00,VWS V14.01,2013-10-02 15:24:00,
2013-10-02 10:30:00,71.2,69.4,30.06,SSW,202,2.5,5.8,94,0.00,,---,0.00,VWS V14.01,2013-10-02 15:30:00,
2013-10-02 10:35:00,71.2,69.4,30.06,SE,135,5.8,6.9,94,0.00,,---,0.00,VWS V14.01,2013-10-02 15:35:00,
2013-10-02 10:39:00,71.6,69.8,30.03,ESE,112,7.2,8.1,94,0.00,,---,0.00,VWS V14.01,2013-10-02 15:39:00,
2013-10-02 10:44:00,72.1,70.0,30.03,SSW,202,2.5,3.8,93,0.00,,---,0.00,VWS V14.01,2013-10-02 15:44:00,
2013-10-02 10:49:00,72.7,70.2,30.03,South,180,5.4,5.4,92,0.00,,---,0.00,VWS V14.01,2013-10-02 15:49:00,
2013-10-02 10:54:00,73.4,70.3,30.06,ESE,112,5.8,8.5,90,0.00,,---,0.00,VWS V14.01,2013-10-02 15:54:00,
2013-10-02 11:00:00,74.1,70.7,30.06,SSW,202,3.4,5.4,89,0.00,,---,0.00,VWS V14.01,2013-10-02 16:00:00,
2013-10-02 11:05:00,74.5,70.4,30.06,SSW,202,3.8,6.3,87,0.00,,---,0.00,VWS V14.01,2013-10-02 16:05:00,
2013-10-02 11:11:00,75.7,71.6,30.03,South,180,2.5,4.0,87,0.00,,---,0.00,VWS V14.01,2013-10-02 16:11:00,
2013-10-02 11:16:00,75.7,70.6,30.03,South,180,3.4,8.7,84,0.00,,---,0.00,VWS V14.01,2013-10-02 16:16:00,
2013-10-02 11:22:00,75.4,69.9,30.03,ENE,68,5.4,7.4,83,0.00,,---,0.00,VWS V14.01,2013-10-02 16:22:00,
2013-10-02 11:27:00,75.4,69.9,30.03,South,180,3.8,7.8,83,0.00,,---,0.00,VWS V14.01,2013-10-02 16:27:00,
2013-10-02 11:33:00,75.4,69.9,30.03,SSE,158,9.4,9.4,83,0.00,,---,0.00,VWS V14.01,2013-10-02 16:33:00,
2013-10-02 11:39:00,75.9,70.0,30.00,SE,135,5.4,6.3,82,0.00,,---,0.00,VWS V14.01,2013-10-02 16:39:00,
2013-10-02 11:44:00,75.9,70.0,30.00,SSE,158,7.4,7.4,82,0.00,,---,0.00,VWS V14.01,2013-10-02 16:44:00,
2013-10-02 11:50:00,76.1,69.8,30.00,South,180,2.0,4.0,81,0.00,,---,0.00,VWS V14.01,2013-10-02 16:50:00,
2013-10-02 11:56:00,77.4,70.3,30.00,SSW,202,3.4,11.0,79,0.00,,---,0.00,VWS V14.01,2013-10-02 16:56:00,
2013-10-02 12:01:00,78.4,71.0,30.00,SSE,158,4.0,7.8,78,0.00,,---,0.00,VWS V14.01,2013-10-02 17:01:00,
2013-10-02 12:07:00,78.4,69.9,30.00,SSW,202,9.4,9.6,75,0.00,,---,0.00,VWS V14.01,2013-10-02 17:07:00,
2013-10-02 12:12:00,79.0,70.4,30.03,SW,225,2.9,6.0,75,0.00,,---,0.00,VWS V14.01,2013-10-02 17:12:00,
2013-10-02 12:18:00,79.0,68.8,30.03,South,180,6.0,8.5,71,0.00,,---,0.00,VWS V14.01,2013-10-02 17:18:00,
2013-10-02 12:24:00,79.0,69.6,30.03,South,180,7.4,11.4,73,0.00,,---,0.00,VWS V14.01,2013-10-02 17:24:00,
2013-10-02 12:30:00,79.5,69.3,30.03,SSW,202,4.9,5.6,71,0.00,,---,0.00,VWS V14.01,2013-10-02 17:30:00,
2013-10-02 12:36:00,79.5,69.3,30.03,East,90,3.1,7.6,71,0.00,,---,0.00,VWS V14.01,2013-10-02 17:36:00,
2013-10-02 12:42:00,79.5,68.9,30.03,South,180,5.8,9.6,70,0.00,,---,0.00,VWS V14.01,2013-10-02 17:42:00,
2013-10-02 12:47:00,79.3,68.7,30.03,WSW,248,10.3,10.3,70,0.00,,---,0.00,VWS V14.01,2013-10-02 17:47:00,
2013-10-02 12:52:00,79.5,68.5,30.03,SSE,158,9.0,9.2,69,0.00,,---,0.00,VWS V14.01,2013-10-02 17:52:00,
2013-10-02 12:57:00,80.4,69.8,30.03,SE,135,2.0,6.3,70,0.00,,---,0.00,VWS V14.01,2013-10-02 17:57:00,
2013-10-02 13:02:00,80.1,69.0,30.03,South,180,4.0,15.2,69,0.00,,---,0.00,VWS V14.01,2013-10-02 18:02:00,
2013-10-02 13:07:00,79.5,68.5,30.03,South,180,2.9,11.0,69,0.00,,---,0.00,VWS V14.01,2013-10-02 18:07:00,
2013-10-02 13:12:00,79.3,68.3,30.00,South,180,10.1,11.0,69,0.00,,---,0.00,VWS V14.01,2013-10-02 18:12:00,
2013-10-02 13:18:00,79.5,68.9,30.00,SSE,158,9.6,9.6,70,0.00,,---,0.00,VWS V14.01,2013-10-02 18:18:00,
2013-10-02 13:24:00,80.8,69.7,30.00,South,180,3.8,6.0,69,0.00,,---,0.00,VWS V14.01,2013-10-02 18:24:00,
2013-10-02 13:29:00,80.2,68.7,30.00,SW,225,6.5,10.3,68,0.00,,---,0.00,VWS V14.01,2013-10-02 18:29:00,
2013-10-02 13:35:00,80.2,69.2,30.00,SE,135,6.5,10.7,69,0.00,,---,0.00,VWS V14.01,2013-10-02 18:35:00,
2013-10-02 13:40:00,81.3,69.3,30.00,ESE,112,5.8,11.9,67,0.00,,---,0.00,VWS V14.01,2013-10-02 18:40:00,
2013-10-02 13:46:00,81.5,69.5,30.00,SSW,202,3.4,6.3,67,0.00,,---,0.00,VWS V14.01,2013-10-02 18:46:00,
2013-10-02 13:51:00,82.9,70.0,30.00,South,180,7.6,8.5,65,0.00,,---,0.00,VWS V14.01,2013-10-02 18:51:00,
2013-10-02 13:57:00,82.8,69.3,30.00,SSW,202,7.8,7.8,64,0.00,,---,0.00,VWS V14.01,2013-10-02 18:57:00,
2013-10-02 14:03:00,81.3,68.4,30.00,SSE,158,7.6,13.2,65,0.00,,---,0.00,VWS V14.01,2013-10-02 19:03:00,
2013-10-02 14:08:00,82.0,68.7,30.00,SSW,202,7.4,9.6,64,0.00,,---,0.00,VWS V14.01,2013-10-02 19:08:00,
2013-10-02 14:14:00,82.9,69.1,29.97,ESE,112,6.3,6.3,63,0.00,,---,0.00,VWS V14.01,2013-10-02 19:14:00,
2013-10-02 14:19:00,82.8,68.9,29.97,SSE,158,6.5,10.1,63,0.00,,---,0.00,VWS V14.01,2013-10-02 19:19:00,
2013-10-02 14:25:00,82.8,68.4,29.97,SW,225,3.6,7.6,62,0.00,,---,0.00,VWS V14.01,2013-10-02 19:25:00,
2013-10-02 14:31:00,82.4,68.1,29.97,SSW,202,10.7,10.7,62,0.00,,---,0.00,VWS V14.01,2013-10-02 19:31:00,
2013-10-02 14:36:00,81.9,67.6,29.97,SSW,202,2.5,8.5,62,0.00,,---,0.00,VWS V14.01,2013-10-02 19:36:00,
2013-10-02 14:42:00,82.8,68.9,29.97,SW,225,4.0,12.1,63,0.00,,---,0.00,VWS V14.01,2013-10-02 19:42:00,
2013-10-02 14:48:00,82.9,68.1,29.97,SSE,158,4.9,13.0,61,0.00,,---,0.00,VWS V14.01,2013-10-02 19:48:00,
2013-10-02 14:53:00,82.2,67.9,29.97,SSE,158,4.0,9.8,62,0.00,,---,0.00,VWS V14.01,2013-10-02 19:53:00,
2013-10-02 14:59:00,82.8,68.9,30.00,South,180,3.8,8.7,63,0.00,,---,0.00,VWS V14.01,2013-10-02 19:59:00,
2013-10-02 15:04:00,82.9,68.1,30.00,SSW,202,6.0,8.7,61,0.00,,---,0.00,VWS V14.01,2013-10-02 20:04:00,
2013-10-02 15:10:00,82.4,68.1,29.94,SW,225,6.5,6.5,62,0.00,,---,0.00,VWS V14.01,2013-10-02 20:10:00,
2013-10-02 15:16:00,81.7,67.9,29.94,SSW,202,4.9,11.9,63,0.00,,---,0.00,VWS V14.01,2013-10-02 20:16:00,
2013-10-02 15:21:00,81.3,68.0,29.94,South,180,5.4,5.4,64,0.00,,---,0.00,VWS V14.01,2013-10-02 20:21:00,
2013-10-02 15:27:00,83.1,68.8,29.97,South,180,3.4,7.6,62,0.00,,---,0.00,VWS V14.01,2013-10-02 20:27:00,
2013-10-02 15:33:00,83.1,67.8,29.97,SSW,202,7.8,10.3,60,0.00,,---,0.00,VWS V14.01,2013-10-02 20:33:00,
2013-10-02 15:38:00,83.8,68.0,29.97,South,180,5.6,9.8,59,0.00,,---,0.00,VWS V14.01,2013-10-02 20:38:00,
2013-10-02 15:44:00,83.5,67.7,29.97,South,180,6.0,7.8,59,0.00,,---,0.00,VWS V14.01,2013-10-02 20:44:00,
2013-10-02 15:49:00,84.2,67.8,29.97,SSW,202,2.7,12.8,58,0.00,,---,0.00,VWS V14.01,2013-10-02 20:49:00,
2013-10-02 15:55:00,84.4,67.0,29.94,South,180,8.1,16.1,56,0.00,,---,0.00,VWS V14.01,2013-10-02 20:55:00,
2013-10-02 16:00:00,84.4,67.5,29.94,SSW,202,5.6,5.8,57,0.00,,---,0.00,VWS V14.01,2013-10-02 21:00:00,
2013-10-02 16:06:00,85.5,67.5,29.94,SW,225,3.4,9.8,55,0.00,,---,0.00,VWS V14.01,2013-10-02 21:06:00,
2013-10-02 16:11:00,85.6,66.6,29.97,SSW,202,5.6,10.1,53,0.00,,---,0.00,VWS V14.01,2013-10-02 21:11:00,
2013-10-02 16:16:00,85.6,66.6,29.97,South,180,10.7,15.7,53,0.00,,---,0.00,VWS V14.01,2013-10-02 21:16:00,
2013-10-02 16:21:00,84.2,66.3,29.97,South,180,6.0,11.9,55,0.00,,---,0.00,VWS V14.01,2013-10-02 21:21:00,
2013-10-02 16:27:00,83.8,66.5,29.94,SSE,158,4.0,5.6,56,0.00,,---,0.00,VWS V14.01,2013-10-02 21:27:00,
2013-10-02 16:33:00,84.9,66.4,29.94,ESE,112,7.2,7.6,54,0.00,,---,0.00,VWS V14.01,2013-10-02 21:33:00,
2013-10-02 16:38:00,85.1,66.6,29.94,South,180,7.4,7.4,54,0.00,,---,0.00,VWS V14.01,2013-10-02 21:38:00,
2013-10-02 16:44:00,83.7,66.3,29.94,South,180,3.4,7.6,56,0.00,,---,0.00,VWS V14.01,2013-10-02 21:44:00,
2013-10-02 16:50:00,83.1,66.3,29.94,SW,225,2.7,3.6,57,0.00,,---,0.00,VWS V14.01,2013-10-02 21:50:00,
2013-10-02 16:55:00,83.3,66.5,29.91,SSW,202,5.6,7.4,57,0.00,,---,0.00,VWS V14.01,2013-10-02 21:55:00,
2013-10-02 17:00:00,83.1,66.3,29.91,South,180,3.8,8.5,57,0.00,,---,0.00,VWS V14.01,2013-10-02 22:00:00,
2013-10-02 17:05:00,84.0,66.7,29.91,SSW,202,2.9,5.6,56,0.00,,---,0.00,VWS V14.01,2013-10-02 22:05:00,
2013-10-02 17:11:00,84.7,67.3,29.91,South,180,3.4,7.2,56,0.00,,---,0.00,VWS V14.01,2013-10-02 22:11:00,
2013-10-02 17:16:00,84.6,66.6,29.91,South,180,3.8,8.1,55,0.00,,---,0.00,VWS V14.01,2013-10-02 22:16:00,
2013-10-02 17:22:00,83.8,66.0,29.91,South,180,5.8,7.2,55,0.00,,---,0.00,VWS V14.01,2013-10-02 22:22:00,
2013-10-02 17:27:00,83.8,66.5,29.91,SSE,158,6.3,6.3,56,0.00,,---,0.00,VWS V14.01,2013-10-02 22:27:00,
2013-10-02 17:33:00,83.7,67.3,29.91,SSE,158,4.7,6.0,58,0.00,,---,0.00,VWS V14.01,2013-10-02 22:33:00,
2013-10-02 17:38:00,83.7,66.8,29.91,NE,45,5.4,8.5,57,0.00,,---,0.00,VWS V14.01,2013-10-02 22:38:00,
2013-10-02 17:44:00,83.3,66.5,29.91,South,180,5.8,13.0,57,0.00,,---,0.00,VWS V14.01,2013-10-02 22:44:00,
2013-10-02 17:50:00,83.1,66.3,29.91,South,180,2.7,8.1,57,0.00,,---,0.00,VWS V14.01,2013-10-02 22:50:00,
2013-10-02 17:55:00,82.8,66.0,29.91,SSW,202,3.8,4.3,57,0.00,,---,0.00,VWS V14.01,2013-10-02 22:55:00,
2013-10-02 18:01:00,82.6,65.8,29.91,SSW,202,2.7,5.4,57,0.00,,---,0.00,VWS V14.01,2013-10-02 23:01:00,
2013-10-02 18:06:00,82.4,65.7,29.91,South,180,9.8,9.8,57,0.00,,---,0.00,VWS V14.01,2013-10-02 23:06:00,
2013-10-02 18:12:00,82.0,66.3,29.91,South,180,5.4,6.5,59,0.00,,---,0.00,VWS V14.01,2013-10-02 23:12:00,
2013-10-02 18:18:00,81.9,66.6,29.91,SSW,202,1.6,4.0,60,0.00,,---,0.00,VWS V14.01,2013-10-02 23:18:00,
2013-10-02 18:23:00,81.7,66.9,29.91,SE,135,4.0,4.0,61,0.00,,---,0.00,VWS V14.01,2013-10-02 23:23:00,
2013-10-02 18:29:00,81.5,67.2,29.91,South,180,3.1,5.8,62,0.00,,---,0.00,VWS V14.01,2013-10-02 23:29:00,
2013-10-02 18:35:00,81.0,67.2,29.91,South,180,3.1,4.9,63,0.00,,---,0.00,VWS V14.01,2013-10-02 23:35:00,
2013-10-02 18:40:00,80.6,66.8,29.91,SSW,202,2.7,4.9,63,0.00,,---,0.00,VWS V14.01,2013-10-02 23:40:00,
2013-10-02 18:46:00,80.1,66.8,29.91,SSW,202,2.7,4.0,64,0.00,,---,0.00,VWS V14.01,2013-10-02 23:46:00,
2013-10-02 18:51:00,79.7,66.9,29.91,SSE,158,2.5,4.9,65,0.00,,---,0.00,VWS V14.01,2013-10-02 23:51:00,
2013-10-02 18:57:00,79.2,66.8,29.91,South,180,3.6,5.6,66,0.00,,---,0.00,VWS V14.01,2013-10-02 23:57:00,
2013-10-02 19:00:00,79.0,66.7,29.91,SSE,158,4.7,6.0,66,0.00,,---,0.00,VWS V14.01,2013-10-03 00:00:00,
2013-10-02 19:05:00,78.8,66.5,29.91,SSE,158,6.5,7.2,66,0.00,,---,0.00,VWS V14.01,2013-10-03 00:05:00,
2013-10-02 19:11:00,78.4,66.6,29.94,SE,135,1.3,4.7,67,0.00,,---,0.00,VWS V14.01,2013-10-03 00:11:00,
2013-10-02 19:16:00,78.1,66.7,29.94,South,180,1.6,2.7,68,0.00,,---,0.00,VWS V14.01,2013-10-03 00:16:00,
2013-10-02 19:22:00,77.5,66.6,29.94,SSE,158,2.7,2.9,69,0.00,,---,0.00,VWS V14.01,2013-10-03 00:22:00,
2013-10-02 19:28:00,77.0,66.1,29.91,SE,135,2.5,3.6,69,0.00,,---,0.00,VWS V14.01,2013-10-03 00:28:00,
2013-10-02 19:33:00,76.8,66.3,29.91,SSE,158,1.6,5.6,70,0.00,,---,0.00,VWS V14.01,2013-10-03 00:33:00,
2013-10-02 19:39:00,76.5,66.4,29.91,SSE,158,1.6,3.4,71,0.00,,---,0.00,VWS V14.01,2013-10-03 00:39:00,
2013-10-02 19:44:00,76.3,66.6,29.91,SSE,158,2.5,4.0,72,0.00,,---,0.00,VWS V14.01,2013-10-03 00:44:00,
2013-10-02 19:50:00,75.9,66.7,29.91,South,180,4.3,4.3,73,0.00,,---,0.00,VWS V14.01,2013-10-03 00:50:00,
2013-10-02 19:56:00,75.7,66.9,29.91,SE,135,3.8,3.8,74,0.00,,---,0.00,VWS V14.01,2013-10-03 00:56:00,
2013-10-02 20:02:00,75.7,66.9,29.91,East,90,3.1,3.8,74,0.00,,---,0.00,VWS V14.01,2013-10-03 01:02:00,
2013-10-02 20:07:00,75.6,66.7,29.91,SSE,158,3.8,3.8,74,0.00,,---,0.00,VWS V14.01,2013-10-03 01:07:00,
2013-10-02 20:13:00,75.4,66.9,29.91,SE,135,4.5,4.5,75,0.00,,---,0.00,VWS V14.01,2013-10-03 01:13:00,
2013-10-02 20:18:00,75.4,66.9,29.91,SSE,158,6.7,6.7,75,0.00,,---,0.00,VWS V14.01,2013-10-03 01:18:00,
2013-10-02 20:23:00,75.6,67.1,29.91,SSW,202,3.8,5.8,75,0.00,,---,0.00,VWS V14.01,2013-10-03 01:23:00,
2013-10-02 20:28:00,75.4,66.9,29.94,South,180,4.0,7.4,75,0.00,,---,0.00,VWS V14.01,2013-10-03 01:28:00,
2013-10-02 20:33:00,75.4,66.9,29.94,South,180,3.1,9.8,75,0.00,,---,0.00,VWS V14.01,2013-10-03 01:33:00,
2013-10-02 20:39:00,75.4,66.9,29.94,SSE,158,3.6,3.6,75,0.00,,---,0.00,VWS V14.01,2013-10-03 01:39:00,
2013-10-02 20:45:00,75.4,66.9,29.94,SSW,202,3.6,3.6,75,0.00,,---,0.00,VWS V14.01,2013-10-03 01:45:00,
2013-10-02 20:50:00,74.8,66.8,29.94,SSE,158,9.0,9.0,76,0.00,,---,0.00,VWS V14.01,2013-10-03 01:50:00,
2013-10-02 20:55:00,74.8,66.8,29.94,ESE,112,5.6,7.4,76,0.00,,---,0.00,VWS V14.01,2013-10-03 01:55:00,
2013-10-02 21:00:00,74.8,66.8,29.94,South,180,4.3,6.0,76,0.00,,---,0.00,VWS V14.01,2013-10-03 02:00:00,
2013-10-02 21:06:00,74.8,66.8,29.94,SW,225,7.6,7.6,76,0.00,,---,0.00,VWS V14.01,2013-10-03 02:06:00,
2013-10-02 21:07:00,74.8,66.8,29.94,SSE,158,3.8,7.6,76,0.00,,---,0.00,VWS V14.01,2013-10-03 02:07:00,
2013-10-02 21:12:00,74.8,66.8,29.94,SSE,158,5.8,6.3,76,0.00,,---,0.00,VWS V14.01,2013-10-03 02:12:00,
2013-10-02 21:18:00,74.7,66.6,29.94,SSE,158,5.8,6.3,76,0.00,,---,0.00,VWS V14.01,2013-10-03 02:18:00,
2013-10-02 21:24:00,74.7,66.6,29.97,SSE,158,2.7,6.5,76,0.00,,---,0.00,VWS V14.01,2013-10-03 02:24:00,
2013-10-02 21:29:00,74.5,66.4,29.97,SSE,158,4.9,7.8,76,0.00,,---,0.00,VWS V14.01,2013-10-03 02:29:00,
2013-10-02 21:35:00,74.5,66.4,29.97,South,180,6.0,6.0,76,0.00,,---,0.00,VWS V14.01,2013-10-03 02:35:00,
2013-10-02 21:40:00,74.5,66.4,29.94,SSW,202,7.2,7.8,76,0.00,,---,0.00,VWS V14.01,2013-10-03 02:40:00,
2013-10-02 21:45:00,74.5,66.4,29.94,SSE,158,5.8,8.7,76,0.00,,---,0.00,VWS V14.01,2013-10-03 02:45:00,
2013-10-02 21:50:00,74.3,66.2,29.94,South,180,2.9,8.7,76,0.00,,---,0.00,VWS V14.01,2013-10-03 02:50:00,
2013-10-02 21:56:00,74.3,66.2,29.94,SSW,202,4.7,4.7,76,0.00,,---,0.00,VWS V14.01,2013-10-03 02:56:00,
2013-10-02 22:01:00,74.3,66.2,29.94,South,180,6.5,10.1,76,0.00,,---,0.00,VWS V14.01,2013-10-03 03:01:00,
2013-10-02 22:07:00,74.3,66.2,29.94,South,180,6.3,7.4,76,0.00,,---,0.00,VWS V14.01,2013-10-03 03:07:00,
2013-10-02 22:13:00,74.3,66.2,29.94,SW,225,5.6,5.8,76,0.00,,---,0.00,VWS V14.01,2013-10-03 03:13:00,
2013-10-02 22:18:00,74.3,66.2,29.94,SW,225,7.8,7.8,76,0.00,,---,0.00,VWS V14.01,2013-10-03 03:18:00,
2013-10-02 22:24:00,74.1,66.1,29.94,SSE,158,9.0,9.0,76,0.00,,---,0.00,VWS V14.01,2013-10-03 03:24:00,
2013-10-02 22:29:00,73.9,66.3,29.94,SSE,158,6.5,6.5,77,0.00,,---,0.00,VWS V14.01,2013-10-03 03:29:00,
2013-10-02 22:34:00,73.8,66.1,29.94,SSW,202,5.8,9.0,77,0.00,,---,0.00,VWS V14.01,2013-10-03 03:34:00,
2013-10-02 22:39:00,73.8,66.1,29.94,SE,135,5.4,6.5,77,0.00,,---,0.00,VWS V14.01,2013-10-03 03:39:00,
2013-10-02 22:45:00,73.4,66.1,29.94,South,180,3.1,4.3,78,0.00,,---,0.00,VWS V14.01,2013-10-03 03:45:00,
2013-10-02 22:50:00,73.4,66.1,29.94,SSW,202,3.6,5.8,78,0.00,,---,0.00,VWS V14.01,2013-10-03 03:50:00,
2013-10-02 22:55:00,73.2,66.3,29.97,WSW,248,5.4,5.4,79,0.00,,---,0.00,VWS V14.01,2013-10-03 03:55:00,
2013-10-02 23:00:00,73.2,66.3,29.97,South,180,5.8,6.7,79,0.00,,---,0.00,VWS V14.01,2013-10-03 04:00:00,
2013-10-02 23:01:00,73.2,66.3,29.97,South,180,5.8,6.3,79,0.00,,---,0.00,VWS V14.01,2013-10-03 04:01:00,
2013-10-02 23:02:00,73.0,66.2,29.97,SSW,202,4.0,5.8,79,0.00,,---,0.00,VWS V14.01,2013-10-03 04:02:00,
2013-10-02 23:06:00,73.0,66.2,29.97,SSE,158,4.0,5.8,79,0.00,,---,0.00,VWS V14.01,2013-10-03 04:06:00,
2013-10-02 23:07:00,73.0,66.2,29.97,South,180,6.3,6.3,79,0.00,,---,0.00,VWS V14.01,2013-10-03 04:07:00,
2013-10-02 23:09:00,73.0,66.2,29.94,SSE,158,5.8,6.0,79,0.00,,---,0.00,VWS V14.01,2013-10-03 04:09:00,
2013-10-02 23:15:00,73.0,66.2,29.94,SSW,202,6.5,7.4,79,0.00,,---,0.00,VWS V14.01,2013-10-03 04:15:00,
2013-10-02 23:21:00,73.0,66.2,29.94,SSE,158,1.3,4.3,79,0.00,,---,0.00,VWS V14.01,2013-10-03 04:21:00,
2013-10-02 23:27:00,73.0,66.2,29.94,SSW,202,3.4,8.1,79,0.00,,---,0.00,VWS V14.01,2013-10-03 04:27:00,
2013-10-02 23:32:00,73.0,66.2,29.94,South,180,5.6,12.8,79,0.00,,---,0.00,VWS V14.01,2013-10-03 04:32:00,
2013-10-02 23:38:00,72.9,66.0,29.94,SSE,158,2.7,2.7,79,0.00,,---,0.00,VWS V14.01,2013-10-03 04:38:00,
2013-10-02 23:43:00,72.9,66.3,29.94,SSW,202,7.4,7.4,80,0.00,,---,0.00,VWS V14.01,2013-10-03 04:43:00,
2013-10-02 23:49:00,72.9,66.3,29.94,SSW,202,4.0,4.0,80,0.00,,---,0.00,VWS V14.01,2013-10-03 04:49:00,
2013-10-02 23:55:00,72.9,66.3,29.94,South,180,5.8,5.8,80,0.00,,---,0.00,VWS V14.01,2013-10-03 04:55:00,